Time;durP1;ratioP1;P1;durP2;ratioP2;P2;SDS_P1;SDS_P2;PMS_P1;PMS_P2;Temp;Humidity;BMP_temperature;BMP_pressure;BME280_temperature;BME280_humidity;BME280_pressure;Samples;Min_cycle;Max_cycle;Signal;HPM_P1;HPM_P2
2022/04/14 00:01:22;;;;;;;11.40;5.47;;;;;;;12.38;85.63;101221.00;6004378;28;20105;-72
2022/04/14 00:04:18;;;;;;;14.47;5.23;;;;;;;12.22;86.77;101232.25;6004630;28;20031;-72
2022/04/14 00:07:13;;;;;;;16.93;5.83;;;;;;;12.08;87.86;101239.84;6005150;28;20508;-72
2022/04/14 00:10:08;;;;;;;18.60;5.90;;;;;;;11.88;88.75;101234.53;6004156;28;20031;-72
2022/04/14 00:13:04;;;;;;;17.23;5.85;;;;;;;11.78;89.41;101239.03;6004905;28;20110;-71
2022/04/14 00:15:59;;;;;;;12.10;5.30;;;;;;;11.83;90.18;101236.78;6004658;28;20463;-71
2022/04/14 00:18:55;;;;;;;16.38;5.82;;;;;;;11.83;90.05;101236.78;6004574;28;20039;-72
2022/04/14 00:21:50;;;;;;;12.77;5.90;;;;;;;11.82;90.04;101235.09;6003796;28;20137;-71
2022/04/14 00:24:45;;;;;;;12.67;5.50;;;;;;;11.87;89.76;101232.03;6004406;28;20038;-71
2022/04/14 00:27:41;;;;;;;12.67;6.43;;;;;;;11.95;89.60;101226.84;6004571;28;20722;-71
2022/04/14 00:30:36;;;;;;;15.10;5.53;;;;;;;11.89;89.63;101236.25;6003289;28;20031;-71
2022/04/14 00:33:31;;;;;;;15.57;5.80;;;;;;;11.89;89.21;101227.41;6004425;28;20026;-71
2022/04/14 00:36:27;;;;;;;11.85;5.70;;;;;;;12.06;89.26;101240.00;6004200;28;20101;-71
2022/04/14 00:39:22;;;;;;;12.98;5.85;;;;;;;12.07;88.83;101251.44;6004091;28;20038;-71
2022/04/14 00:42:17;;;;;;;15.52;6.35;;;;;;;12.05;88.92;101240.97;6003769;28;20481;-71
2022/04/14 00:45:14;;;;;;;15.23;5.60;;;;;;;12.21;88.22;101246.53;6014050;28;20035;-71
2022/04/14 00:48:09;;;;;;;17.02;5.53;;;;;;;12.15;88.15;101249.75;6007320;28;20041;-71
2022/04/14 00:51:07;;;;;;;14.73;5.57;;;;;;;12.16;88.38;101239.97;6003416;28;20058;-71
2022/04/14 00:54:02;;;;;;;12.35;5.28;;;;;;;12.07;88.02;101248.78;6003504;28;20278;-71
2022/04/14 00:56:58;;;;;;;16.50;6.00;;;;;;;12.08;88.27;101235.38;6007801;28;20398;-71
2022/04/14 00:59:53;;;;;;;10.68;5.20;;;;;;;12.22;87.93;101239.41;6002825;28;20085;-71
2022/04/14 01:02:49;;;;;;;12.10;5.80;;;;;;;12.28;87.06;101237.00;6003395;28;20423;-71
2022/04/14 01:05:45;;;;;;;13.07;5.40;;;;;;;12.28;86.99;101242.34;5986514;28;20262;-71
2022/04/14 01:09:16;;;;;;;11.05;4.93;;;;;;;12.17;87.56;101236.34;6003102;28;20042;-71
2022/04/14 01:11:57;;;;;;;11.73;5.28;;;;;;;12.04;87.13;101233.97;5988320;28;20034;-71
2022/04/14 01:14:53;;;;;;;11.27;4.67;;;;;;;12.10;87.96;101235.22;6003403;28;20070;-71
2022/04/14 01:17:48;;;;;;;16.30;5.87;;;;;;;12.09;87.55;101228.22;6003696;28;20038;-71
2022/04/14 01:20:43;;;;;;;10.00;5.37;;;;;;;12.10;87.60;101232.53;6002274;28;20409;-71
2022/04/14 01:23:43;;;;;;;12.68;5.13;;;;;;;12.06;88.01;101241.81;6003296;28;20039;-71
2022/04/14 01:26:40;;;;;;;11.02;5.18;;;;;;;12.12;87.51;101246.56;6003452;28;20027;-71
2022/04/14 01:29:36;;;;;;;11.70;5.22;;;;;;;12.03;87.72;101255.38;5985947;28;20371;-71
2022/04/14 01:32:31;;;;;;;15.45;4.78;;;;;;;12.06;88.32;101260.41;6002359;28;20030;-71
2022/04/14 01:35:26;;;;;;;9.67;4.87;;;;;;;12.30;88.20;101260.78;6003056;28;20422;-71
2022/04/14 01:38:22;;;;;;;14.07;5.50;;;;;;;12.20;88.34;101265.28;6002837;28;20042;-71
2022/04/14 01:41:17;;;;;;;10.83;5.10;;;;;;;12.14;88.25;101268.53;6002158;28;20070;-71
2022/04/14 01:44:12;;;;;;;14.00;4.87;;;;;;;12.04;88.16;101260.53;6004252;28;20026;-71
2022/04/14 01:47:08;;;;;;;10.60;5.10;;;;;;;12.21;88.42;101266.94;6014213;28;20125;-71
2022/04/14 01:50:07;;;;;;;9.68;4.95;;;;;;;12.22;88.08;101263.31;6001882;28;20356;-71
2022/04/14 01:53:02;;;;;;;13.30;5.03;;;;;;;12.36;87.65;101266.38;6002939;28;20041;-71
2022/04/14 01:55:57;;;;;;;13.57;5.57;;;;;;;12.30;87.44;101272.28;6002782;28;20410;-71
2022/04/14 01:58:53;;;;;;;9.17;4.30;;;;;;;12.45;87.49;101277.94;6002316;28;20061;-71
2022/04/14 02:01:48;;;;;;;12.93;5.33;;;;;;;12.47;86.68;101274.16;6002267;28;20041;-71
2022/04/14 02:04:44;;;;;;;17.40;5.80;;;;;;;12.73;86.60;101268.22;6002564;28;20046;-71
2022/04/14 02:07:39;;;;;;;11.38;5.00;;;;;;;12.68;86.72;101276.63;6002823;28;20043;-71
2022/04/14 02:10:34;;;;;;;14.57;5.10;;;;;;;12.69;86.11;101278.28;6001866;28;20038;-71
2022/04/14 02:13:30;;;;;;;17.27;7.03;;;;;;;12.42;86.79;101276.41;6002394;28;20031;-70
2022/04/14 02:16:26;;;;;;;19.67;5.72;;;;;;;12.51;87.09;101280.88;6002723;28;20479;-71
2022/04/14 02:19:21;;;;;;;19.25;6.55;;;;;;;12.50;87.33;101279.19;6002292;28;20038;-71
2022/04/14 02:22:16;;;;;;;18.53;6.47;;;;;;;12.55;86.80;101281.44;6001747;28;20081;-70
2022/04/14 02:25:11;;;;;;;16.10;6.63;;;;;;;12.41;87.09;101281.91;6002474;28;20479;-71
2022/04/14 02:28:07;;;;;;;17.47;6.23;;;;;;;12.48;87.25;101277.66;6002210;28;20069;-71
2022/04/14 02:31:02;;;;;;;15.70;5.93;;;;;;;12.42;87.07;101276.41;6001786;28;20109;-71
2022/04/14 02:33:57;;;;;;;15.30;6.17;;;;;;;12.26;87.73;101280.66;6002194;28;20521;-70
2022/04/14 02:36:54;;;;;;;14.07;6.20;;;;;;;12.43;87.38;101277.28;6002820;28;20085;-71
2022/04/14 02:39:49;;;;;;;15.43;6.50;;;;;;;12.64;86.63;101280.56;6001743;28;20035;-71
2022/04/14 02:42:46;;;;;;;13.57;5.93;;;;;;;12.74;86.91;101283.19;6001800;28;20493;-71
2022/04/14 02:45:41;;;;;;;16.55;6.45;;;;;;;12.60;86.53;101273.03;6015308;28;20031;-71
2022/04/14 02:48:37;;;;;;;17.77;6.10;;;;;;;12.54;87.21;101274.44;6002092;28;20097;-71
2022/04/14 02:51:32;;;;;;;12.50;5.60;;;;;;;12.32;87.69;101274.78;6002276;28;20093;-71
2022/04/14 02:54:27;;;;;;;16.37;6.53;;;;;;;12.18;88.46;101277.88;6006201;28;20085;-71
2022/04/14 02:57:23;;;;;;;15.50;6.10;;;;;;;12.03;89.15;101268.66;6006806;28;20059;-71
2022/04/14 03:00:18;;;;;;;14.00;5.80;;;;;;;12.01;89.67;101276.81;6006136;28;20077;-71
2022/04/14 03:03:13;;;;;;;13.70;6.07;;;;;;;12.02;90.30;101270.47;6006347;28;20113;-71
2022/04/14 03:06:08;;;;;;;13.77;6.00;;;;;;;12.20;90.11;101275.94;6006568;28;20284;-71
2022/04/14 03:09:04;;;;;;;12.67;5.97;;;;;;;12.18;89.56;101268.09;6006197;28;20039;-72
2022/04/14 03:11:59;;;;;;;14.63;5.80;;;;;;;12.07;89.64;101262.91;6014834;28;20078;-71
2022/04/14 03:14:54;;;;;;;15.90;5.83;;;;;;;12.23;89.88;101262.34;6006358;28;20540;-71
2022/04/14 03:17:50;;;;;;;14.53;6.23;;;;;;;12.18;89.16;101260.09;6006113;28;20054;-71
2022/04/14 03:20:45;;;;;;;21.55;5.80;;;;;;;12.08;89.81;101263.75;6005706;28;20060;-71
2022/04/14 03:23:40;;;;;;;13.63;6.35;;;;;;;12.14;89.89;101271.19;6005897;28;20037;-71
2022/04/14 03:26:36;;;;;;;12.77;5.60;;;;;;;12.23;89.82;101267.69;6005894;28;20482;-71
2022/04/14 03:29:33;;;;;;;14.13;5.80;;;;;;;12.38;89.33;101266.22;6005941;28;20034;-71
2022/04/14 03:32:28;;;;;;;13.57;5.90;;;;;;;12.34;88.90;101260.34;6005102;28;20034;-71
2022/04/14 03:35:23;;;;;;;14.33;5.93;;;;;;;12.29;89.21;101265.25;6005760;28;20051;-71
2022/04/14 03:38:19;;;;;;;13.13;5.20;;;;;;;12.08;89.16;101251.31;6005391;28;20034;-71
2022/04/14 03:41:14;;;;;;;16.67;6.53;;;;;;;12.23;89.33;101249.88;6005071;28;20405;-71
2022/04/14 03:44:09;;;;;;;14.07;6.03;;;;;;;12.27;89.27;101256.59;6006773;28;20039;-71
2022/04/14 03:47:05;;;;;;;14.47;6.27;;;;;;;12.06;89.44;101250.63;6016903;28;20093;-71
2022/04/14 03:50:00;;;;;;;14.98;6.47;;;;;;;12.02;89.96;101261.66;6005143;28;20500;-71
2022/04/14 03:52:56;;;;;;;17.92;6.63;;;;;;;12.07;90.70;101259.41;6005019;28;20051;-71
2022/04/14 03:55:51;;;;;;;15.13;6.23;;;;;;;12.02;91.05;101264.31;6005465;28;20471;-71
2022/04/14 03:58:46;;;;;;;13.33;5.10;;;;;;;12.13;90.75;101250.88;6005125;28;20093;-72
2022/04/14 04:01:42;;;;;;;15.70;5.90;;;;;;;11.93;91.17;101260.69;6004151;28;20781;-71
2022/04/14 04:04:37;;;;;;;11.55;5.63;;;;;;;12.17;91.43;101239.84;6004108;28;20023;-72
2022/04/14 04:07:32;;;;;;;13.87;6.27;;;;;;;12.34;90.64;101246.19;6004892;28;20045;-71
2022/04/14 04:10:28;;;;;;;15.60;5.63;;;;;;;12.57;90.47;101247.53;6004404;28;20118;-72
2022/04/14 04:13:23;;;;;;;13.37;5.90;;;;;;;12.38;89.66;101247.59;6011685;28;20027;-72
2022/04/14 04:16:18;;;;;;;13.10;5.63;;;;;;;12.31;90.10;101257.97;6004438;28;20039;-72
2022/04/14 04:19:14;;;;;;;15.30;5.97;;;;;;;12.12;89.93;101258.00;6004807;28;20035;-72
2022/04/14 04:22:10;;;;;;;12.13;6.30;;;;;;;11.94;91.13;101255.25;6003957;28;20305;-72
2022/04/14 04:25:06;;;;;;;19.58;6.20;;;;;;;11.88;91.50;101255.81;6004770;28;20542;-72
2022/04/14 04:28:02;;;;;;;14.88;5.82;;;;;;;11.82;92.21;101261.69;6004637;28;20046;-72
2022/04/14 04:30:57;;;;;;;18.60;6.47;;;;;;;11.71;92.27;101259.16;6003721;28;20034;-72
2022/04/14 04:33:53;;;;;;;13.93;5.90;;;;;;;11.83;93.02;101266.03;6004313;28;20039;-71
2022/04/14 04:36:48;;;;;;;15.15;6.03;;;;;;;11.71;92.79;101266.31;6004272;28;20282;-71
2022/04/14 04:39:44;;;;;;;14.63;5.88;;;;;;;11.72;93.09;101263.50;6004172;28;20051;-71
2022/04/14 04:42:39;;;;;;;11.87;5.93;;;;;;;11.74;93.35;101263.38;6003729;28;20475;-71
2022/04/14 04:45:35;;;;;;;16.17;6.40;;;;;;;11.72;93.82;101255.53;6004013;28;20034;-70
2022/04/14 04:48:31;;;;;;;14.45;6.53;;;;;;;11.72;93.82;101263.50;6004137;28;20039;-71
2022/04/14 04:51:26;;;;;;;12.90;6.03;;;;;;;11.67;94.11;101268.38;6002867;28;20041;-71
2022/04/14 04:54:21;;;;;;;14.10;6.43;;;;;;;11.59;94.44;101273.53;6004079;28;20504;-72
2022/04/14 04:57:17;;;;;;;15.63;7.23;;;;;;;11.66;94.77;101269.34;6003911;28;20398;-71
2022/04/14 05:00:12;;;;;;;16.60;6.30;;;;;;;11.63;95.07;101277.59;6003239;28;20034;-71
2022/04/14 05:03:09;;;;;;;17.45;6.55;;;;;;;11.61;95.01;101282.19;6003752;28;20041;-71
2022/04/14 05:06:05;;;;;;;19.27;7.43;;;;;;;11.83;95.31;101271.34;6003348;28;20041;-71
2022/04/14 05:09:01;;;;;;;19.13;7.35;;;;;;;11.68;94.93;101264.75;6003800;28;20034;-71
2022/04/14 05:11:57;;;;;;;13.27;7.33;;;;;;;11.94;94.50;101284.47;6002924;28;20386;-70
2022/04/14 05:14:52;;;;;;;17.35;6.65;;;;;;;11.82;94.80;101276.81;6003530;28;20285;-72
2022/04/14 05:17:47;;;;;;;16.10;6.70;;;;;;;11.70;95.07;101278.75;6003662;28;20035;-71
2022/04/14 05:20:43;;;;;;;16.37;6.47;;;;;;;11.67;95.35;101273.69;6002561;28;20022;-70
2022/04/14 05:23:38;;;;;;;17.30;6.80;;;;;;;12.03;95.55;101284.63;6002800;28;20046;-71
2022/04/14 05:26:33;;;;;;;18.27;7.60;;;;;;;11.85;95.08;101279.16;6003144;28;20049;-70
2022/04/14 05:29:30;;;;;;;18.60;7.75;;;;;;;11.71;94.98;101296.34;6003494;28;20138;-71
2022/04/14 05:32:26;;;;;;;18.70;7.93;;;;;;;11.76;94.89;101298.63;6002659;28;20375;-71
2022/04/14 05:35:21;;;;;;;19.52;8.38;;;;;;;11.68;95.44;101299.28;6003030;28;20058;-70
2022/04/14 05:38:16;;;;;;;19.93;7.20;;;;;;;11.55;95.61;101304.00;6002970;28;20038;-72
2022/04/14 05:41:12;;;;;;;19.80;8.10;;;;;;;11.57;96.04;101298.56;6001639;28;20505;-72
2022/04/14 05:44:07;;;;;;;14.60;6.83;;;;;;;11.71;96.04;101296.34;6004241;28;20042;-70
2022/04/14 05:47:03;;;;;;;18.53;7.83;;;;;;;12.03;96.12;101296.09;6014883;28;20042;-71
2022/04/14 05:49:58;;;;;;;18.65;7.20;;;;;;;11.69;95.76;101298.31;6003900;28;20284;-71
2022/04/14 05:52:55;;;;;;;15.57;7.37;;;;;;;11.76;96.04;101301.28;6002349;28;20050;-72
2022/04/14 05:55:50;;;;;;;15.68;7.43;;;;;;;11.76;95.86;101309.25;6002315;28;20431;-71
2022/04/14 05:58:46;;;;;;;16.65;8.02;;;;;;;11.62;95.62;101305.16;6002784;28;20109;-72
2022/04/14 06:01:45;;;;;;;17.77;7.80;;;;;;;11.50;95.77;101306.22;6002331;28;20031;-72
2022/04/14 06:04:41;;;;;;;20.00;8.18;;;;;;;11.53;96.13;101308.63;6002517;28;20073;-71
2022/04/14 06:07:36;;;;;;;20.50;7.55;;;;;;;11.48;96.20;101316.16;6002662;28;20031;-71
2022/04/14 06:10:31;;;;;;;21.03;8.13;;;;;;;11.39;96.05;101316.16;6001826;28;20082;-72
2022/04/14 06:13:27;;;;;;;17.02;7.60;;;;;;;11.37;96.54;101318.94;6003577;28;20278;-71
2022/04/14 06:16:22;;;;;;;17.13;8.50;;;;;;;11.42;96.76;101321.16;6002715;28;20045;-70
2022/04/14 06:19:18;;;;;;;18.02;7.50;;;;;;;11.48;96.83;101324.13;6002242;28;20027;-71
2022/04/14 06:22:13;;;;;;;21.40;8.97;;;;;;;11.58;97.01;101322.31;6001864;28;20042;-73
2022/04/14 06:25:13;;;;;;;19.07;7.93;;;;;;;11.60;97.00;101323.03;6002125;28;20034;-72
2022/04/14 06:28:08;;;;;;;18.33;7.70;;;;;;;11.63;96.92;101335.22;6005635;28;20122;-71
2022/04/14 06:31:03;;;;;;;19.70;8.20;;;;;;;11.72;97.10;101337.06;6006360;28;20030;-71
2022/04/14 06:33:58;;;;;;;20.17;8.43;;;;;;;11.70;97.16;101323.06;6007378;28;20038;-71
2022/04/14 06:36:54;;;;;;;20.70;7.40;;;;;;;11.67;96.69;101324.16;6007141;28;20045;-71
2022/04/14 06:39:49;;;;;;;16.90;7.47;;;;;;;11.57;96.76;101331.28;6006781;28;20042;-72
2022/04/14 06:42:44;;;;;;;22.73;8.33;;;;;;;11.69;96.86;101334.66;6006312;28;20393;-70
2022/04/14 06:45:40;;;;;;;16.60;7.30;;;;;;;11.67;96.72;101331.28;6006371;28;20055;-72
2022/04/14 06:48:35;;;;;;;19.90;7.73;;;;;;;11.72;96.78;101334.41;6007068;28;20066;-73
2022/04/14 06:51:30;;;;;;;16.83;6.93;;;;;;;11.70;96.79;101345.19;6005938;28;20470;-72
2022/04/14 06:54:27;;;;;;;19.40;8.87;;;;;;;11.67;96.81;101341.91;6006573;28;20381;-70
2022/04/14 06:57:22;;;;;;;14.70;7.43;;;;;;;11.67;97.22;101349.88;6006783;28;20267;-71
2022/04/14 07:00:19;;;;;;;18.20;8.30;;;;;;;11.70;97.01;101342.53;6005951;28;20046;-72
2022/04/14 07:03:14;;;;;;;15.80;7.28;;;;;;;11.67;97.27;101342.75;6006452;28;20340;-69
2022/04/14 07:06:09;;;;;;;17.20;7.17;;;;;;;11.64;97.06;101351.00;6006417;28;20042;-71
2022/04/14 07:09:05;;;;;;;16.30;7.27;;;;;;;11.66;97.15;101351.69;6006204;28;20707;-72
2022/04/14 07:12:01;;;;;;;16.13;6.63;;;;;;;11.82;97.31;101345.91;6005831;28;20034;-71
2022/04/14 07:14:56;;;;;;;16.55;7.43;;;;;;;11.77;97.13;101338.31;6012174;28;20281;-72
2022/04/14 07:17:51;;;;;;;13.87;6.03;;;;;;;11.89;97.18;101344.34;6005866;28;20066;-71
2022/04/14 07:20:47;;;;;;;12.90;5.70;;;;;;;11.83;97.32;101345.75;6005333;28;20285;-71
2022/04/14 07:23:42;;;;;;;14.10;6.53;;;;;;;11.97;97.32;101348.97;6005861;28;20043;-71
2022/04/14 07:26:37;;;;;;;13.63;6.13;;;;;;;11.94;96.98;101360.72;6006136;28;20042;-71
2022/04/14 07:29:33;;;;;;;11.73;5.67;;;;;;;11.99;97.00;101365.59;6005778;28;20046;-71
2022/04/14 07:32:35;;;;;;;13.30;6.50;;;;;;;12.04;97.04;101363.41;6005499;28;20093;-71
2022/04/14 07:35:32;;;;;;;12.30;5.55;;;;;;;11.99;96.58;101362.94;6005512;28;20039;-71
2022/04/14 07:38:27;;;;;;;11.25;5.53;;;;;;;12.05;96.56;101357.94;6005248;28;20027;-71
2022/04/14 07:41:22;;;;;;;11.90;5.53;;;;;;;12.22;96.37;101348.41;6005163;28;20043;-72
2022/04/14 07:44:19;;;;;;;9.27;4.72;;;;;;;12.27;96.09;101347.00;6008011;28;20110;-71
2022/04/14 07:47:14;;;;;;;12.27;5.55;;;;;;;12.38;95.65;101343.34;6016130;28;20397;-71
2022/04/14 07:50:11;;;;;;;11.17;5.37;;;;;;;12.46;95.38;101346.16;6004485;28;20026;-71
2022/04/14 07:53:07;;;;;;;8.60;4.93;;;;;;;12.49;94.43;101356.50;6005155;28;20041;-73
2022/04/14 07:56:04;;;;;;;11.60;5.13;;;;;;;12.59;94.50;101352.00;6005389;28;20478;-73
2022/04/14 07:59:00;;;;;;;9.80;4.68;;;;;;;12.80;93.90;101368.59;6004529;28;20038;-71
2022/04/14 08:02:00;;;;;;;8.00;4.40;;;;;;;12.76;92.93;101351.25;6004085;28;20609;-70
2022/04/14 08:04:55;;;;;;;9.88;4.38;;;;;;;12.72;93.19;101357.03;6003349;28;20019;-71
2022/04/14 08:07:50;;;;;;;9.97;4.53;;;;;;;12.63;92.47;101357.88;6004811;28;20513;-70
2022/04/14 08:10:48;;;;;;;9.80;4.47;;;;;;;12.73;92.93;101367.53;6004028;28;20031;-71
2022/04/14 08:13:43;;;;;;;9.18;4.65;;;;;;;12.60;92.71;101364.34;6004608;28;20034;-71
2022/04/14 08:16:39;;;;;;;8.27;3.90;;;;;;;12.68;92.26;101367.13;6004214;28;20039;-71
2022/04/14 08:19:34;;;;;;;8.45;4.22;;;;;;;12.72;92.45;101367.69;6004691;28;20402;-71
2022/04/14 08:22:42;;;;;;;8.18;4.07;;;;;;;12.89;92.25;101367.75;6003904;28;20478;-73
2022/04/14 08:25:39;;;;;;;7.70;3.92;;;;;;;12.91;91.88;101355.13;6004061;28;20110;-72
2022/04/14 08:28:35;;;;;;;9.48;3.97;;;;;;;13.14;91.11;101352.97;5995435;28;20106;-72
2022/04/14 08:31:30;;;;;;;12.05;4.60;;;;;;;13.07;90.92;101347.38;6003580;28;20062;-72
2022/04/14 08:34:26;;;;;;;9.03;3.83;;;;;;;13.24;91.00;101361.75;6003837;28;20034;-71
2022/04/14 08:37:21;;;;;;;6.65;3.70;;;;;;;13.24;90.37;101358.25;6002743;28;20030;-72
2022/04/14 08:40:18;;;;;;;7.47;3.60;;;;;;;13.21;89.78;101363.91;6001146;28;20027;-72
2022/04/14 08:43:17;;;;;;;8.48;3.80;;;;;;;13.27;89.71;101364.13;6002629;28;20740;-72
2022/04/14 08:46:14;;;;;;;9.45;4.35;;;;;;;13.28;89.51;101365.81;6004369;28;20019;-72
2022/04/14 08:49:10;;;;;;;6.50;3.53;;;;;;;13.37;89.02;101358.78;5989099;28;20462;-72
2022/04/14 08:52:06;;;;;;;8.15;3.33;;;;;;;13.41;89.43;101368.13;6018140;28;20042;-72
2022/04/14 08:55:05;;;;;;;6.45;3.15;;;;;;;13.45;89.27;101361.53;5990288;28;20043;-72
2022/04/14 08:58:00;;;;;;;8.20;3.30;;;;;;;13.63;89.40;101371.25;6003915;28;20045;-72
2022/04/14 09:00:56;;;;;;;7.13;4.40;;;;;;;13.94;88.38;101366.38;6002845;28;20090;-72
2022/04/14 09:03:55;;;;;;;6.75;3.28;;;;;;;14.03;87.32;101357.47;6003313;28;20431;-72
2022/04/14 09:06:51;;;;;;;6.53;3.53;;;;;;;14.41;85.60;101360.81;6003096;28;20490;-72
2022/04/14 09:09:47;;;;;;;9.25;3.83;;;;;;;14.30;84.65;101354.72;6002734;28;20038;-72
2022/04/14 09:12:42;;;;;;;5.37;2.80;;;;;;;14.39;84.47;101346.81;6001385;28;20030;-72
2022/04/14 09:15:38;;;;;;;7.22;3.40;;;;;;;14.39;84.47;101365.50;5985821;28;20281;-72
2022/04/14 09:18:34;;;;;;;9.00;4.57;;;;;;;14.33;84.76;101350.94;6003193;28;20385;-72
2022/04/14 09:21:29;;;;;;;8.45;3.50;;;;;;;14.49;83.82;101355.56;6001496;28;20290;-72
2022/04/14 09:24:50;;;;;;;8.07;3.53;;;;;;;14.40;83.46;101356.50;6001537;28;20101;-72
2022/04/14 09:27:45;;;;;;;8.65;4.38;;;;;;;14.43;84.04;101356.19;5994120;28;20049;-72
2022/04/14 09:30:59;;;;;;;8.20;4.60;;;;;;;14.22;83.66;101362.66;5989107;28;20035;-72
2022/04/14 09:33:55;;;;;;;13.23;5.43;;;;;;;14.40;83.10;101359.16;5999610;28;20034;-72
2022/04/14 09:37:05;;;;;;;11.07;4.55;;;;;;;14.72;83.16;101357.56;5998955;28;20042;-72
2022/04/14 09:40:08;;;;;;;10.27;4.68;;;;;;;14.94;82.71;101360.72;5999691;28;20033;-72
2022/04/14 09:43:05;;;;;;;12.85;5.30;;;;;;;15.34;81.46;101359.06;6000979;28;20386;-72
2022/04/14 09:46:02;;;;;;;13.48;4.68;;;;;;;15.37;79.68;101355.22;6002835;28;20128;-72
2022/04/14 09:49:07;;;;;;;10.15;5.07;;;;;;;15.14;80.23;101354.97;5984058;28;20387;-70
2022/04/14 09:52:06;;;;;;;11.52;5.10;;;;;;;15.38;80.06;101356.94;6000211;28;20041;-71
2022/04/14 09:55:09;;;;;;;8.32;4.20;;;;;;;15.44;79.04;101356.25;6000108;28;20027;-70
2022/04/14 09:58:15;;;;;;;9.27;4.78;;;;;;;15.44;78.54;101358.94;6000870;28;20031;-70
2022/04/14 10:01:18;;;;;;;11.57;5.38;;;;;;;15.08;80.02;101368.97;5997487;28;20058;-70
2022/04/14 10:04:34;;;;;;;13.00;4.47;;;;;;;15.13;79.43;101352.47;5998674;28;20034;-70
2022/04/14 10:07:29;;;;;;;10.90;4.70;;;;;;;15.37;78.74;101350.72;6000888;28;20040;-69
2022/04/14 10:10:24;;;;;;;14.00;6.25;;;;;;;15.56;77.91;101349.66;5999981;28;20030;-70
2022/04/14 10:13:20;;;;;;;14.30;6.00;;;;;;;15.34;78.60;101359.06;6001640;28;20038;-69
2022/04/14 10:16:20;;;;;;;18.20;6.25;;;;;;;15.41;77.96;101356.56;6000743;28;20114;-69
2022/04/14 10:19:16;;;;;;;13.32;6.32;;;;;;;15.64;77.60;101351.50;6000743;28;20467;-69
2022/04/14 10:22:11;;;;;;;14.95;6.55;;;;;;;15.79;76.98;101344.53;6000429;28;20089;-69
2022/04/14 10:25:07;;;;;;;15.27;7.27;;;;;;;15.84;77.24;101347.56;5983097;28;20390;-70
2022/04/14 10:28:07;;;;;;;17.35;6.50;;;;;;;15.64;76.22;101351.50;6000787;28;20368;-69
2022/04/14 10:31:03;;;;;;;15.75;6.13;;;;;;;15.84;77.41;101350.22;6000243;28;20133;-69
2022/04/14 10:34:03;;;;;;;15.57;7.20;;;;;;;15.70;76.28;101354.38;5997993;28;20367;-69
2022/04/14 10:37:00;;;;;;;13.00;6.38;;;;;;;16.13;75.05;101352.44;6000369;28;20026;-70
2022/04/14 10:39:56;;;;;;;14.57;6.82;;;;;;;16.45;73.56;101345.25;6000581;28;20035;-69
2022/04/14 10:42:53;;;;;;;11.15;6.25;;;;;;;16.17;72.23;101346.56;5999910;28;20027;-69
2022/04/14 10:45:54;;;;;;;12.10;6.70;;;;;;;15.93;72.52;101346.53;6002582;28;20031;-70
2022/04/14 10:48:49;;;;;;;16.05;7.70;;;;;;;15.80;72.63;101340.84;5983385;28;20540;-69
2022/04/14 10:51:45;;;;;;;16.80;6.67;;;;;;;15.90;72.55;101344.19;5981253;28;20035;-69
2022/04/14 10:55:00;;;;;;;18.45;9.23;;;;;;;16.12;71.89;101340.88;6001648;28;20647;-69
2022/04/14 10:57:56;;;;;;;18.05;7.25;;;;;;;16.40;72.23;101338.72;6000408;28;20030;-69
2022/04/14 11:00:51;;;;;;;14.80;6.72;;;;;;;16.51;71.82;101346.41;5999588;28;20062;-70
2022/04/14 11:03:54;;;;;;;13.23;6.90;;;;;;;16.84;70.30;101342.72;5983117;28;20043;-69
2022/04/14 11:06:54;;;;;;;16.27;7.38;;;;;;;17.06;69.08;101349.19;5997215;28;20062;-70
2022/04/14 11:09:52;;;;;;;14.93;7.00;;;;;;;17.06;69.02;101331.25;6000283;28;20051;-69
2022/04/14 11:12:57;;;;;;;14.63;6.38;;;;;;;17.44;67.22;101339.47;6000403;28;20166;-69
2022/04/14 11:15:52;;;;;;;12.73;6.38;;;;;;;17.37;67.51;101333.13;6006360;28;20038;-69
2022/04/14 11:19:18;;;;;;;14.73;7.38;;;;;;;17.18;67.69;101335.22;6005623;28;20442;-70
2022/04/14 11:22:14;;;;;;;15.00;6.53;;;;;;;17.52;66.91;101332.22;6005423;28;20051;-70
2022/04/14 11:25:41;;;;;;;13.85;6.57;;;;;;;17.52;66.75;101344.78;6010678;28;20092;-70
2022/04/14 11:28:39;;;;;;;13.60;5.90;;;;;;;17.88;64.95;101331.72;6005761;28;20035;-70
2022/04/14 11:31:35;;;;;;;12.57;6.00;;;;;;;17.79;65.69;101334.44;6004319;28;20542;-70
2022/04/14 11:34:32;;;;;;;13.85;5.97;;;;;;;17.75;65.17;101343.00;5986573;28;20041;-70
2022/04/14 11:37:40;;;;;;;11.15;5.65;;;;;;;17.45;67.24;101341.97;6005323;28;20117;-69
2022/04/14 11:40:38;;;;;;;12.25;6.40;;;;;;;17.56;66.51;101341.59;6004599;28;20482;-70
2022/04/14 11:43:34;;;;;;;12.18;6.68;;;;;;;17.43;66.67;101338.63;6003427;28;20129;-70
2022/04/14 11:46:30;;;;;;;12.98;6.18;;;;;;;17.98;65.32;101327.78;6004897;28;20470;-70
2022/04/14 11:49:28;;;;;;;16.27;5.95;;;;;;;18.27;63.27;101335.91;6005324;28;20030;-69
2022/04/14 11:52:24;;;;;;;13.95;5.95;;;;;;;18.48;62.55;101319.13;6006181;28;20038;-69
2022/04/14 11:55:39;;;;;;;12.93;6.82;;;;;;;18.00;63.61;101332.94;5987556;28;20446;-70
2022/04/14 11:58:34;;;;;;;12.55;6.03;;;;;;;18.27;60.82;101321.66;6003793;28;20043;-71
2022/04/14 12:01:30;;;;;;;12.10;5.80;;;;;;;17.81;64.65;101326.19;6003678;28;20074;-70
2022/04/14 12:04:25;;;;;;;14.35;5.72;;;;;;;17.95;63.60;101319.22;6002648;28;20034;-70
2022/04/14 12:07:24;;;;;;;11.80;5.60;;;;;;;18.00;65.01;101325.72;6003779;28;20122;-70
2022/04/14 12:10:19;;;;;;;12.65;6.15;;;;;;;18.00;63.58;101320.38;6002418;28;21241;-70
2022/04/14 12:13:15;;;;;;;11.03;5.63;;;;;;;18.34;62.46;101326.13;6003103;28;20034;-70
2022/04/14 12:16:12;;;;;;;10.30;5.32;;;;;;;18.53;61.23;101330.19;6003328;28;20085;-71
2022/04/14 12:19:07;;;;;;;13.10;5.53;;;;;;;18.93;61.13;101321.69;6002900;28;20035;-71
2022/04/14 12:22:04;;;;;;;11.43;5.33;;;;;;;18.66;60.22;101316.13;6002537;28;20019;-70
2022/04/14 12:25:05;;;;;;;10.23;6.10;;;;;;;18.52;61.69;101320.47;6001930;28;20023;-71
2022/04/14 12:28:01;;;;;;;11.23;5.78;;;;;;;18.93;59.80;101313.63;6004529;28;20030;-71
2022/04/14 12:31:09;;;;;;;11.55;6.47;;;;;;;18.91;59.62;101320.22;5985641;28;20114;-70
2022/04/14 12:34:08;;;;;;;13.85;5.13;;;;;;;19.04;59.96;101312.34;6002059;28;20029;-71
2022/04/14 12:37:08;;;;;;;10.20;6.10;;;;;;;18.68;59.75;101312.22;5985387;28;20425;-70
2022/04/14 12:40:11;;;;;;;11.77;5.20;;;;;;;18.31;60.83;101317.59;6001922;28;20147;-70
2022/04/14 12:43:20;;;;;;;10.18;5.68;;;;;;;18.35;59.96;101321.56;6005990;28;20134;-70
2022/04/14 12:46:38;;;;;;;8.50;4.97;;;;;;;18.43;60.30;101316.13;6022117;28;20041;-70
2022/04/14 12:49:33;;;;;;;11.98;5.05;;;;;;;18.92;58.84;101306.59;6004052;28;20093;-70
2022/04/14 12:52:29;;;;;;;13.13;5.53;;;;;;;19.32;56.76;101301.75;6002644;28;20454;-70
2022/04/14 12:55:26;;;;;;;7.53;4.72;;;;;;;19.44;56.32;101295.69;6003823;28;20375;-70
2022/04/14 12:58:21;;;;;;;9.30;4.35;;;;;;;19.66;54.46;101282.28;6003766;28;20039;-71
2022/04/14 13:01:17;;;;;;;12.83;5.00;;;;;;;19.93;54.34;101289.59;6002558;28;20046;-70
2022/04/14 13:04:12;;;;;;;9.95;4.70;;;;;;;19.25;55.54;101290.03;6003559;28;20582;-71
2022/04/14 13:07:14;;;;;;;12.82;5.32;;;;;;;18.95;56.13;101298.16;6003406;28;20035;-71
2022/04/14 13:10:10;;;;;;;10.85;4.90;;;;;;;18.16;57.27;101304.13;6003015;28;20038;-70
2022/04/14 13:13:07;;;;;;;9.67;4.67;;;;;;;18.00;58.45;101292.69;6003272;28;20050;-70
2022/04/14 13:16:03;;;;;;;11.07;4.13;;;;;;;18.80;56.48;101281.22;6002300;28;20294;-72
2022/04/14 13:18:58;;;;;;;9.15;4.15;;;;;;;18.96;56.16;101280.16;6002240;28;20381;-70
2022/04/14 13:21:54;;;;;;;11.83;4.27;;;;;;;19.04;55.10;101296.19;6002157;28;20058;-70
2022/04/14 13:24:49;;;;;;;7.32;4.07;;;;;;;18.65;56.08;101288.41;6003342;28;20469;-70
2022/04/14 13:27:44;;;;;;;10.53;3.53;;;;;;;18.73;56.37;101292.84;6003024;28;20056;-71
2022/04/14 13:30:40;;;;;;;6.27;3.40;;;;;;;18.64;56.13;101286.75;6001758;28;20042;-70
2022/04/14 13:33:35;;;;;;;8.93;4.07;;;;;;;18.77;55.60;101281.56;5997747;28;20126;-71
2022/04/14 13:36:30;;;;;;;8.47;4.10;;;;;;;18.69;57.08;101283.50;6001281;28;20758;-71